createdAt,value
2022-10-11T00:00:36.690Z,7.50
2022-10-11T00:03:03.564Z,7.40
2022-10-11T00:05:30.327Z,7.30
2022-10-11T00:07:57.170Z,7.30
2022-10-11T00:10:23.915Z,7.30
2022-10-11T00:12:52.535Z,7.40
2022-10-11T00:15:21.492Z,7.40
2022-10-11T00:17:48.267Z,7.40
2022-10-11T00:20:15.016Z,7.30
2022-10-11T00:22:42.093Z,7.40
2022-10-11T00:25:09.749Z,7.40
2022-10-11T00:27:36.593Z,7.40
2022-10-11T00:30:04.708Z,7.40
2022-10-11T00:32:33.128Z,7.40
2022-10-11T00:35:04.662Z,7.30
2022-10-11T00:37:35.018Z,7.30
2022-10-11T00:40:01.930Z,7.30
2022-10-11T00:42:28.677Z,7.20
2022-10-11T00:45:27.233Z,7.10
2022-10-11T00:48:04.222Z,7.10
2022-10-11T00:50:33.269Z,7.10
2022-10-11T00:53:01.996Z,7.20
2022-10-11T00:55:31.303Z,7.10
2022-10-11T00:57:58.763Z,7.10
2022-10-11T01:00:25.445Z,7.10
2022-10-11T01:02:52.176Z,7.10
2022-10-11T01:05:29.248Z,7.00
2022-10-11T01:07:57.538Z,7.10
2022-10-11T01:10:24.239Z,7.10
2022-10-11T01:13:20.183Z,7.00
2022-10-11T01:16:01.881Z,7.00
2022-10-11T01:18:49.476Z,7.00
2022-10-11T01:21:39.694Z,7.00
2022-10-11T01:24:32.772Z,6.90
2022-10-11T01:27:13.425Z,6.90
2022-10-11T01:30:18.183Z,6.80
2022-10-11T01:32:50.687Z,6.80
2022-10-11T01:35:23.775Z,6.70
2022-10-11T01:37:56.012Z,6.80
2022-10-11T01:40:25.171Z,6.90
2022-10-11T01:42:51.842Z,6.90
2022-10-11T01:45:19.147Z,6.80
2022-10-11T01:47:46.070Z,6.80
2022-10-11T01:50:36.143Z,6.80
2022-10-11T01:53:17.898Z,6.80
2022-10-11T01:55:55.412Z,6.70
2022-10-11T01:58:31.858Z,6.60
2022-10-11T02:01:06.795Z,6.70
2022-10-11T02:03:48.211Z,6.70
2022-10-11T02:06:20.469Z,6.70
2022-10-11T02:08:59.167Z,6.60
2022-10-11T02:11:30.731Z,6.60
2022-10-11T02:14:06.156Z,6.50
2022-10-11T02:16:38.500Z,6.50
2022-10-11T02:19:05.556Z,6.50
2022-10-11T02:21:33.265Z,6.50
2022-10-11T02:24:16.660Z,6.50
2022-10-11T02:26:44.027Z,6.60
2022-10-11T02:29:11.031Z,6.50
2022-10-11T02:31:37.768Z,6.50
2022-10-11T02:34:17.842Z,6.40
2022-10-11T02:36:54.925Z,6.30
2022-10-11T02:39:28.514Z,6.30
2022-10-11T02:41:56.397Z,6.30
2022-10-11T02:44:59.703Z,6.20
2022-10-11T02:47:28.191Z,6.20
2022-10-11T02:49:54.999Z,6.20
2022-10-11T02:52:21.702Z,6.20
2022-10-11T02:54:48.388Z,6.20
2022-10-11T02:57:15.124Z,6.20
2022-10-11T02:59:41.829Z,6.20
2022-10-11T03:02:08.635Z,6.20
2022-10-11T03:04:35.332Z,6.30
2022-10-11T03:07:01.990Z,6.20
2022-10-11T03:09:28.635Z,6.20
2022-10-11T03:11:55.279Z,6.20
2022-10-11T03:14:21.919Z,6.10
2022-10-11T03:16:48.747Z,6.10
2022-10-11T03:19:19.116Z,6.10
2022-10-11T03:21:46.302Z,6.10
2022-10-11T03:24:12.974Z,6.10
2022-10-11T03:26:39.709Z,6.00
2022-10-11T03:29:06.379Z,6.00
2022-10-11T03:31:33.030Z,6.00
2022-10-11T03:33:59.765Z,6.00
2022-10-11T03:36:26.515Z,6.00
2022-10-11T03:38:53.233Z,6.00
2022-10-11T03:41:19.984Z,6.00
2022-10-11T03:43:46.733Z,5.90
2022-10-11T03:46:13.408Z,5.90
2022-10-11T03:48:40.159Z,5.90
2022-10-11T03:51:06.911Z,5.90
2022-10-11T03:53:33.601Z,5.90
2022-10-11T03:56:03.406Z,5.80
2022-10-11T03:58:32.634Z,5.70
2022-10-11T04:00:59.784Z,5.70
2022-10-11T04:03:26.806Z,5.70
2022-10-11T04:05:53.449Z,5.70
2022-10-11T04:08:20.139Z,5.70
2022-10-11T04:10:48.477Z,5.70
2022-10-11T04:13:15.278Z,5.70
2022-10-11T04:15:42.022Z,5.70
2022-10-11T04:18:09.018Z,5.80
2022-10-11T04:20:35.816Z,5.80
2022-10-11T04:23:02.505Z,5.80
2022-10-11T04:25:29.179Z,5.70
2022-10-11T04:27:56.075Z,5.70
2022-10-11T04:30:22.927Z,5.70
2022-10-11T04:32:49.609Z,5.50
2022-10-11T04:35:16.390Z,5.50
2022-10-11T04:37:43.056Z,5.50
2022-10-11T04:40:10.468Z,5.40
2022-10-11T04:42:37.151Z,5.40
2022-10-11T04:45:04.072Z,5.50
2022-10-11T04:47:30.727Z,5.50
2022-10-11T04:49:57.699Z,5.50
2022-10-11T04:52:25.925Z,5.50
2022-10-11T04:54:52.774Z,5.60
2022-10-11T04:57:19.480Z,5.60
2022-10-11T04:59:49.973Z,5.50
2022-10-11T05:02:17.225Z,5.40
2022-10-11T05:04:43.977Z,5.40
2022-10-11T05:07:10.704Z,5.40
2022-10-11T05:09:37.558Z,5.40
2022-10-11T05:12:04.467Z,5.40
2022-10-11T05:14:31.202Z,5.40
2022-10-11T05:16:58.088Z,5.40
2022-10-11T05:19:24.770Z,5.30
2022-10-11T05:21:51.493Z,5.30
2022-10-11T05:24:18.337Z,5.40
2022-10-11T05:26:45.097Z,5.40
2022-10-11T05:29:11.749Z,5.30
2022-10-11T05:31:38.501Z,5.30
2022-10-11T05:34:05.286Z,5.40
2022-10-11T05:36:32.221Z,5.40
2022-10-11T05:38:58.928Z,5.30
2022-10-11T05:41:25.650Z,5.30
2022-10-11T05:43:52.472Z,5.30
2022-10-11T05:46:19.359Z,5.40
2022-10-11T05:48:46.100Z,5.30
2022-10-11T05:51:12.829Z,5.30
2022-10-11T05:53:39.603Z,5.30
2022-10-11T05:56:15.520Z,5.30
2022-10-11T05:58:42.227Z,5.30
2022-10-11T06:01:16.912Z,5.30
2022-10-11T06:03:43.666Z,5.30
2022-10-11T06:06:10.859Z,5.20
2022-10-11T06:08:37.854Z,5.20
2022-10-11T06:11:18.917Z,5.10
2022-10-11T06:13:45.669Z,5.10
2022-10-11T06:16:13.406Z,5.10
2022-10-11T06:18:40.218Z,5.10
2022-10-11T06:21:07.071Z,5.10
2022-10-11T06:23:33.939Z,5.10
2022-10-11T06:26:07.085Z,5.10
2022-10-11T06:28:35.158Z,5.10
2022-10-11T06:31:03.973Z,5.20
2022-10-11T06:33:30.979Z,5.20
2022-10-11T06:36:05.725Z,5.20
2022-10-11T06:38:32.676Z,5.20
2022-10-11T06:41:18.265Z,5.20
2022-10-11T06:43:45.376Z,5.20
2022-10-11T06:46:12.407Z,5.30
2022-10-11T06:48:43.604Z,5.30
2022-10-11T06:51:11.394Z,5.30
2022-10-11T06:53:38.322Z,5.30
2022-10-11T06:56:06.531Z,5.40
2022-10-11T06:58:33.751Z,5.40
2022-10-11T07:01:04.405Z,5.40
2022-10-11T07:03:31.325Z,5.50
2022-10-11T07:06:25.386Z,5.60
2022-10-11T07:08:52.320Z,5.60
2022-10-11T07:11:22.659Z,5.70
2022-10-11T07:14:09.572Z,5.70
2022-10-11T07:16:36.554Z,5.70
2022-10-11T07:19:04.477Z,5.80
2022-10-11T07:21:32.011Z,5.80
2022-10-11T07:23:59.107Z,5.80
2022-10-11T07:26:26.050Z,5.90
2022-10-11T07:28:52.852Z,5.80
2022-10-11T07:31:21.491Z,5.90
2022-10-11T07:33:48.187Z,6.00
2022-10-11T07:36:14.947Z,6.00
2022-10-11T07:38:42.956Z,6.10
2022-10-11T07:41:09.882Z,6.10
2022-10-11T07:43:37.258Z,6.20
2022-10-11T07:46:07.553Z,6.20
2022-10-11T07:48:35.341Z,6.30
2022-10-11T07:51:07.095Z,6.30
2022-10-11T07:53:39.143Z,6.50
2022-10-11T07:56:06.651Z,6.50
2022-10-11T07:58:33.661Z,6.60
2022-10-11T08:01:00.483Z,6.70
2022-10-11T08:03:27.299Z,6.80
2022-10-11T08:05:54.044Z,6.90
2022-10-11T08:08:20.760Z,7.00
2022-10-11T08:10:47.623Z,7.00
2022-10-11T08:13:14.557Z,7.10
2022-10-11T08:15:41.346Z,7.30
2022-10-11T08:18:08.079Z,7.40
2022-10-11T08:20:34.855Z,7.40
2022-10-11T08:23:01.590Z,7.60
2022-10-11T08:25:28.415Z,7.60
2022-10-11T08:27:55.241Z,7.70
2022-10-11T08:30:22.009Z,7.80
2022-10-11T08:32:48.972Z,7.90
2022-10-11T08:35:15.807Z,8.00
2022-10-11T08:37:42.710Z,8.10
2022-10-11T08:40:15.360Z,8.20
2022-10-11T08:42:49.114Z,8.30
2022-10-11T08:45:44.225Z,8.40
2022-10-11T08:48:35.511Z,8.60
2022-10-11T08:51:05.452Z,9.00
2022-10-11T08:53:56.942Z,9.30
2022-10-11T08:56:23.795Z,9.70
2022-10-11T08:59:05.764Z,10.00
2022-10-11T09:01:32.764Z,10.50
2022-10-11T09:04:00.263Z,10.80
2022-10-11T09:06:40.576Z,10.90
2022-10-11T09:09:42.830Z,11.00
2022-10-11T09:12:32.282Z,11.00
2022-10-11T09:15:29.062Z,11.00
2022-10-11T09:17:58.752Z,10.90
2022-10-11T09:20:40.553Z,10.80
2022-10-11T09:23:44.260Z,10.80
2022-10-11T09:26:21.135Z,10.80
2022-10-11T09:29:10.412Z,10.70
2022-10-11T09:31:37.229Z,10.70
2022-10-11T09:34:12.039Z,10.70
2022-10-11T09:36:51.251Z,10.70
2022-10-11T09:39:30.865Z,10.80
2022-10-11T09:42:01.839Z,10.80
2022-10-11T09:44:36.722Z,10.80
2022-10-11T09:47:04.530Z,10.90
2022-10-11T09:49:36.046Z,10.90
2022-10-11T09:52:03.455Z,11.00
2022-10-11T09:54:44.276Z,11.10
2022-10-11T09:57:24.654Z,11.10
2022-10-11T10:00:20.580Z,11.10
2022-10-11T10:02:48.985Z,11.20
2022-10-11T10:05:18.501Z,11.30
2022-10-11T10:08:04.061Z,11.30
2022-10-11T10:10:59.549Z,11.30
2022-10-11T10:13:43.916Z,11.40
2022-10-11T10:16:22.930Z,11.50
2022-10-11T10:18:50.825Z,11.50
2022-10-11T10:21:17.646Z,11.50
2022-10-11T10:23:44.373Z,11.60
2022-10-11T10:26:18.041Z,11.60
2022-10-11T10:29:07.996Z,11.60
2022-10-11T10:32:02.053Z,11.60
2022-10-11T10:34:32.019Z,11.80
2022-10-11T10:37:03.385Z,11.80
2022-10-11T10:39:42.035Z,11.90
2022-10-11T10:42:15.462Z,12.00
2022-10-11T10:44:42.696Z,12.00
2022-10-11T10:47:15.534Z,12.10
2022-10-11T10:49:54.701Z,12.10
2022-10-11T10:52:46.565Z,12.10
2022-10-11T10:55:26.874Z,12.10
2022-10-11T10:58:05.300Z,12.20
2022-10-11T11:00:42.700Z,12.20
2022-10-11T11:03:12.294Z,12.30
2022-10-11T11:05:46.095Z,12.30
2022-10-11T11:08:38.966Z,12.30
2022-10-11T11:11:32.452Z,12.40
2022-10-11T11:14:37.815Z,12.50
2022-10-11T11:17:19.717Z,12.50
2022-10-11T11:20:07.936Z,12.50
2022-10-11T11:23:07.575Z,12.50
2022-10-11T11:25:45.168Z,12.60
2022-10-11T11:28:15.150Z,12.60
2022-10-11T11:30:57.600Z,12.60
2022-10-11T11:33:39.871Z,12.60
2022-10-11T11:36:14.363Z,12.70
2022-10-11T11:38:41.013Z,12.80
2022-10-11T11:41:20.876Z,13.00
2022-10-11T11:43:55.179Z,13.00
2022-10-11T11:46:24.832Z,13.10
2022-10-11T11:48:51.570Z,13.20
2022-10-11T11:51:21.333Z,13.20
2022-10-11T11:53:51.443Z,13.20
2022-10-11T11:56:57.123Z,13.20
2022-10-11T11:59:31.395Z,13.30
2022-10-11T12:02:21.181Z,13.40
2022-10-11T12:04:48.504Z,13.40
2022-10-11T12:07:17.766Z,13.40
2022-10-11T12:09:51.475Z,13.40
2022-10-11T12:12:37.481Z,13.40
2022-10-11T12:15:10.248Z,13.30
2022-10-11T12:18:15.467Z,13.30
2022-10-11T12:20:42.382Z,13.30
2022-10-11T12:23:42.892Z,13.30
2022-10-11T12:26:36.734Z,13.40
2022-10-11T12:29:42.141Z,13.50
2022-10-11T12:32:11.085Z,13.50
2022-10-11T12:34:42.485Z,13.60
2022-10-11T12:37:18.764Z,13.70
2022-10-11T12:39:52.893Z,13.90
2022-10-11T12:42:35.840Z,14.00
2022-10-11T12:45:12.141Z,14.00
2022-10-11T12:47:39.160Z,14.00
2022-10-11T12:50:18.787Z,14.10
2022-10-11T12:52:55.367Z,14.20
2022-10-11T12:55:33.035Z,14.20
2022-10-11T12:58:18.112Z,14.20
2022-10-11T13:00:55.632Z,14.20
2022-10-11T13:03:41.853Z,14.20
2022-10-11T13:06:20.564Z,14.30
2022-10-11T13:09:13.601Z,14.40
2022-10-11T13:12:04.915Z,14.40
2022-10-11T13:14:36.445Z,14.40
2022-10-11T13:17:03.571Z,14.50
2022-10-11T13:19:31.873Z,14.60
2022-10-11T13:22:00.667Z,14.70
2022-10-11T13:24:28.003Z,14.70
2022-10-11T13:26:55.540Z,14.70
2022-10-11T13:29:40.955Z,14.90
2022-10-11T13:32:12.726Z,14.80
2022-10-11T13:34:40.942Z,14.90
2022-10-11T13:37:07.841Z,15.00
2022-10-11T13:39:36.427Z,15.10
2022-10-11T13:42:14.150Z,15.10
2022-10-11T13:44:41.359Z,15.20
2022-10-11T13:47:13.746Z,15.10
2022-10-11T13:49:40.444Z,15.10
2022-10-11T13:52:20.546Z,15.10
2022-10-11T13:54:53.377Z,15.20
2022-10-11T13:57:27.446Z,15.20
2022-10-11T13:59:54.349Z,15.20
2022-10-11T14:02:22.350Z,15.20
2022-10-11T14:04:49.868Z,15.30
2022-10-11T14:07:28.111Z,15.40
2022-10-11T14:09:54.888Z,15.30
2022-10-11T14:12:40.846Z,15.30
2022-10-11T14:15:23.775Z,15.50
2022-10-11T14:17:51.336Z,15.60
2022-10-11T14:20:22.816Z,15.70
2022-10-11T14:22:53.392Z,15.70
2022-10-11T14:25:23.130Z,15.80
2022-10-11T14:27:49.787Z,15.80
2022-10-11T14:30:27.558Z,15.90
2022-10-11T14:32:55.722Z,16.20
2022-10-11T14:35:27.433Z,16.30
2022-10-11T14:37:54.102Z,16.40
2022-10-11T14:40:23.568Z,16.50
2022-10-11T14:42:50.530Z,16.60
2022-10-11T14:45:17.687Z,16.80
2022-10-11T14:47:44.443Z,17.00
2022-10-11T14:50:28.838Z,17.30
2022-10-11T14:52:55.848Z,17.70
2022-10-11T14:55:22.755Z,18.20
2022-10-11T14:57:49.440Z,18.90
2022-10-11T15:00:20.842Z,19.60
2022-10-11T15:02:47.645Z,20.10
2022-10-11T15:05:14.520Z,20.50
2022-10-11T15:07:41.262Z,21.00
2022-10-11T15:10:19.804Z,21.20
2022-10-11T15:12:46.639Z,20.90
2022-10-11T15:15:19.841Z,21.10
2022-10-11T15:17:51.940Z,21.40
2022-10-11T15:20:27.691Z,21.60
2022-10-11T15:22:55.055Z,21.70
2022-10-11T15:25:23.398Z,21.90
2022-10-11T15:27:50.573Z,22.10
2022-10-11T15:30:25.648Z,22.40
2022-10-11T15:32:53.219Z,22.30
2022-10-11T15:35:20.572Z,22.00
2022-10-11T15:37:47.350Z,21.60
2022-10-11T15:40:24.328Z,21.20
2022-10-11T15:42:51.758Z,21.40
2022-10-11T15:45:19.082Z,21.60
2022-10-11T15:47:46.222Z,21.60
2022-10-11T15:50:33.881Z,21.40
2022-10-11T15:53:04.485Z,21.40
2022-10-11T15:55:32.230Z,21.70
2022-10-11T15:57:59.268Z,21.90
2022-10-11T16:00:26.222Z,21.00
2022-10-11T16:02:53.145Z,20.30
2022-10-11T16:05:21.531Z,19.50
2022-10-11T16:07:48.684Z,18.90
2022-10-11T16:10:15.605Z,18.50
2022-10-11T16:12:42.500Z,18.40
2022-10-11T16:15:09.716Z,18.50
2022-10-11T16:17:36.767Z,18.20
2022-10-11T16:20:06.820Z,17.90
2022-10-11T16:22:35.657Z,17.50
2022-10-11T16:25:02.638Z,17.20
2022-10-11T16:27:29.545Z,17.00
2022-10-11T16:29:56.397Z,16.80
2022-10-11T16:32:24.308Z,16.50
2022-10-11T16:34:54.059Z,16.40
2022-10-11T16:37:20.903Z,16.20
2022-10-11T16:39:47.638Z,16.00
2022-10-11T16:42:14.353Z,15.80
2022-10-11T16:44:41.264Z,15.80
2022-10-11T16:47:08.148Z,15.60
2022-10-11T16:49:35.015Z,15.50
2022-10-11T16:52:04.668Z,15.40
2022-10-11T16:54:31.571Z,15.30
2022-10-11T16:56:58.900Z,15.20
2022-10-11T16:59:25.687Z,15.10
2022-10-11T17:01:52.414Z,15.00
2022-10-11T17:04:19.229Z,14.90
2022-10-11T17:06:46.010Z,14.80
2022-10-11T17:09:12.997Z,14.70
2022-10-11T17:11:40.692Z,14.50
2022-10-11T17:14:07.771Z,14.40
2022-10-11T17:16:35.132Z,14.30
2022-10-11T17:19:01.973Z,14.20
2022-10-11T17:21:28.829Z,14.10
2022-10-11T17:23:55.609Z,14.00
2022-10-11T17:26:26.677Z,13.90
2022-10-11T17:28:54.810Z,13.80
2022-10-11T17:31:21.837Z,13.70
2022-10-11T17:33:48.654Z,13.50
2022-10-11T17:36:20.020Z,13.60
2022-10-11T17:38:47.266Z,13.50
2022-10-11T17:41:14.129Z,13.40
2022-10-11T17:43:40.941Z,13.20
2022-10-11T17:46:09.013Z,13.10
2022-10-11T17:48:36.704Z,13.10
2022-10-11T17:51:10.804Z,12.90
2022-10-11T17:53:37.857Z,12.80
2022-10-11T17:56:09.763Z,12.70
2022-10-11T17:58:36.611Z,12.70
2022-10-11T18:01:08.790Z,12.70
2022-10-11T18:03:35.980Z,12.60
2022-10-11T18:06:05.649Z,12.60
2022-10-11T18:08:39.208Z,12.50
2022-10-11T18:11:14.774Z,12.40
2022-10-11T18:13:45.806Z,12.30
2022-10-11T18:16:16.392Z,12.20
2022-10-11T18:18:43.381Z,12.10
2022-10-11T18:21:10.703Z,12.10
2022-10-11T18:23:38.333Z,12.00
2022-10-11T18:26:15.426Z,12.00
2022-10-11T18:28:42.565Z,12.00
2022-10-11T18:31:13.549Z,11.90
2022-10-11T18:33:40.900Z,11.80
2022-10-11T18:36:08.419Z,11.70
2022-10-11T18:38:35.440Z,11.60
2022-10-11T18:41:09.362Z,11.60
2022-10-11T18:43:36.366Z,11.60
2022-10-11T18:46:09.945Z,11.50
2022-10-11T18:48:36.708Z,11.40
2022-10-11T18:51:08.957Z,11.30
2022-10-11T18:53:37.604Z,11.30
2022-10-11T18:56:06.090Z,11.30
2022-10-11T18:58:36.771Z,11.20
2022-10-11T19:01:08.363Z,11.10
2022-10-11T19:03:35.564Z,11.00
2022-10-11T19:06:07.078Z,10.90
2022-10-11T19:08:34.197Z,10.90
2022-10-11T19:11:10.345Z,10.70
2022-10-11T19:13:37.183Z,10.70
2022-10-11T19:16:09.016Z,10.60
2022-10-11T19:18:40.416Z,10.60
2022-10-11T19:21:11.350Z,10.60
2022-10-11T19:23:42.503Z,10.50
2022-10-11T19:26:16.032Z,10.50
2022-10-11T19:28:43.248Z,10.50
2022-10-11T19:31:11.579Z,10.40
2022-10-11T19:33:38.428Z,10.40
2022-10-11T19:36:06.659Z,10.40
2022-10-11T19:38:34.154Z,10.30
2022-10-11T19:41:01.781Z,10.30
2022-10-11T19:43:28.477Z,10.30
2022-10-11T19:46:08.854Z,10.30
2022-10-11T19:48:39.099Z,10.30
2022-10-11T19:51:10.607Z,10.30
2022-10-11T19:53:37.532Z,10.20
2022-10-11T19:56:05.944Z,10.20
2022-10-11T19:58:32.851Z,10.10
2022-10-11T20:01:00.678Z,10.00
2022-10-11T20:03:27.519Z,10.00
2022-10-11T20:05:54.300Z,9.90
2022-10-11T20:08:21.409Z,9.90
2022-10-11T20:10:48.154Z,9.90
2022-10-11T20:13:14.967Z,9.80
2022-10-11T20:15:41.747Z,9.80
2022-10-11T20:18:08.623Z,9.70
2022-10-11T20:20:35.481Z,9.70
2022-10-11T20:23:02.161Z,9.60
2022-10-11T20:25:28.858Z,9.50
2022-10-11T20:27:55.639Z,9.50
2022-10-11T20:30:22.426Z,9.50
2022-10-11T20:32:49.235Z,9.50
2022-10-11T20:35:16.014Z,9.50
2022-10-11T20:37:42.755Z,9.50
2022-10-11T20:40:10.311Z,9.50
2022-10-11T20:42:37.601Z,9.40
2022-10-11T20:45:04.980Z,9.30
2022-10-11T20:47:32.143Z,9.30
2022-10-11T20:49:59.002Z,9.30
2022-10-11T20:52:25.901Z,9.20
2022-10-11T20:54:52.640Z,9.20
2022-10-11T20:57:19.372Z,9.00
2022-10-11T20:59:46.225Z,9.00
2022-10-11T21:02:16.663Z,8.90
2022-10-11T21:04:45.615Z,8.90
2022-10-11T21:07:12.374Z,8.90
2022-10-11T21:09:39.046Z,8.90
2022-10-11T21:12:06.147Z,9.00
2022-10-11T21:14:32.885Z,9.00
2022-10-11T21:16:59.579Z,8.90
2022-10-11T21:19:26.376Z,9.00
2022-10-11T21:21:53.934Z,8.90
2022-10-11T21:24:21.408Z,8.80
2022-10-11T21:26:48.170Z,8.80
2022-10-11T21:29:14.949Z,8.70
2022-10-11T21:31:41.703Z,8.70
2022-10-11T21:34:08.450Z,8.60
2022-10-11T21:36:35.327Z,8.50
2022-10-11T21:39:02.339Z,8.50
2022-10-11T21:41:30.164Z,8.40
2022-10-11T21:43:57.703Z,8.40
2022-10-11T21:49:16.056Z,8.40
2022-10-11T21:51:42.973Z,8.50
2022-10-11T21:54:09.854Z,8.50
2022-10-11T21:56:36.639Z,8.50
2022-10-11T21:59:06.513Z,8.50
2022-10-11T22:01:41.958Z,8.50
2022-10-11T22:04:09.012Z,8.50
2022-10-11T22:06:36.108Z,8.40
2022-10-11T22:09:03.817Z,8.40
2022-10-11T22:11:30.619Z,8.40
2022-10-11T22:13:57.437Z,8.40
2022-10-11T22:16:24.347Z,8.30
2022-10-11T22:18:53.334Z,8.30
2022-10-11T22:21:21.677Z,8.20
2022-10-11T22:23:49.578Z,8.20
2022-10-11T22:26:20.309Z,8.10
2022-10-11T22:28:47.040Z,8.10
2022-10-11T22:31:14.127Z,8.00
2022-10-11T22:33:41.913Z,7.90
2022-10-11T22:36:09.678Z,7.90
2022-10-11T22:38:37.079Z,7.90
2022-10-11T22:41:03.811Z,8.00
2022-10-11T22:43:30.513Z,8.00
2022-10-11T22:45:57.153Z,8.00
2022-10-11T22:48:23.852Z,7.90
2022-10-11T22:50:51.318Z,7.90
2022-10-11T22:53:18.092Z,7.90
2022-10-11T22:55:44.851Z,7.80
2022-10-11T22:58:11.568Z,7.80
2022-10-11T23:00:38.424Z,7.80
2022-10-11T23:03:07.139Z,7.80
2022-10-11T23:05:34.957Z,7.90
2022-10-11T23:08:01.850Z,7.90
2022-10-11T23:10:28.961Z,7.90
2022-10-11T23:12:55.615Z,8.00
2022-10-11T23:15:22.536Z,8.00
2022-10-11T23:17:49.311Z,7.90
2022-10-11T23:20:16.179Z,7.80
2022-10-11T23:22:42.936Z,7.70
2022-10-11T23:25:09.716Z,7.70
2022-10-11T23:27:36.470Z,7.70
2022-10-11T23:30:04.278Z,7.70
2022-10-11T23:32:30.995Z,7.70
2022-10-11T23:34:57.758Z,7.70
2022-10-11T23:37:24.477Z,7.60
2022-10-11T23:39:51.940Z,7.60
2022-10-11T23:42:18.684Z,7.60
2022-10-11T23:44:45.374Z,7.50
2022-10-11T23:47:12.059Z,7.50
2022-10-11T23:49:38.802Z,7.50
2022-10-11T23:52:05.657Z,7.50
2022-10-11T23:54:34.696Z,7.50
2022-10-11T23:57:01.372Z,7.40
2022-10-11T23:59:28.132Z,7.50
